createdAt,value
2018-06-05T00:00:16.928Z,27.87
2018-06-05T00:02:46.154Z,27.37
2018-06-05T00:05:15.479Z,27.10
2018-06-05T00:07:44.771Z,26.00
2018-06-05T00:10:14.048Z,29.30
2018-06-05T00:12:44.291Z,26.37
2018-06-05T00:15:13.538Z,27.67
2018-06-05T00:17:42.776Z,26.03
2018-06-05T00:20:12.172Z,28.10
2018-06-05T00:22:41.522Z,28.53
2018-06-05T00:25:10.749Z,27.10
2018-06-05T00:27:39.957Z,28.63
2018-06-05T00:30:09.181Z,29.60
2018-06-05T00:32:38.668Z,30.33
2018-06-05T00:35:07.551Z,29.67
2018-06-05T00:37:36.699Z,29.10
2018-06-05T00:40:06.039Z,31.10
2018-06-05T00:42:35.393Z,27.43
2018-06-05T00:45:04.679Z,29.47
2018-06-05T00:47:33.913Z,27.40
2018-06-05T00:50:03.204Z,25.47
2018-06-05T00:52:32.537Z,29.70
2018-06-05T00:55:01.827Z,29.03
2018-06-05T00:57:31.149Z,28.60
2018-06-05T01:00:00.342Z,29.13
2018-06-05T01:02:29.656Z,26.87
2018-06-05T01:04:58.922Z,27.53
2018-06-05T01:07:28.238Z,27.43
2018-06-05T01:09:57.581Z,28.87
2018-06-05T01:12:26.874Z,28.10
2018-06-05T01:14:56.059Z,26.73
2018-06-05T01:17:25.260Z,28.17
2018-06-05T01:19:54.473Z,28.77
2018-06-05T01:22:23.778Z,28.13
2018-06-05T01:24:53.038Z,28.33
2018-06-05T01:27:22.299Z,29.50
2018-06-05T01:29:51.596Z,30.50
2018-06-05T01:32:20.908Z,28.67
2018-06-05T01:34:50.250Z,27.77
2018-06-05T01:37:19.507Z,28.10
2018-06-05T01:39:48.836Z,28.70
2018-06-05T01:42:18.065Z,31.00
2018-06-05T01:44:47.326Z,30.63
2018-06-05T01:47:16.677Z,28.77
2018-06-05T01:49:45.912Z,30.57
2018-06-05T01:52:15.154Z,29.97
2018-06-05T01:54:44.143Z,29.70
2018-06-05T01:57:13.324Z,28.93
2018-06-05T01:59:42.556Z,29.13
2018-06-05T02:02:11.804Z,30.30
2018-06-05T02:04:41.294Z,28.83
2018-06-05T02:07:10.509Z,29.33
2018-06-05T02:09:39.753Z,30.20
2018-06-05T02:12:09.098Z,29.23
2018-06-05T02:14:38.336Z,29.13
2018-06-05T02:17:07.567Z,31.70
2018-06-05T02:19:36.858Z,31.77
2018-06-05T02:22:06.188Z,31.57
2018-06-05T02:24:35.439Z,32.50
2018-06-05T02:27:05.014Z,31.60
2018-06-05T02:29:34.266Z,32.63
2018-06-05T02:32:03.855Z,34.20
2018-06-05T02:34:33.224Z,33.40
2018-06-05T02:37:02.549Z,31.67
2018-06-05T02:39:31.779Z,36.27
2018-06-05T02:42:01.606Z,34.77
2018-06-05T02:44:30.913Z,34.80
2018-06-05T02:47:00.299Z,33.10
2018-06-05T02:49:29.591Z,33.03
2018-06-05T02:51:58.806Z,33.47
2018-06-05T02:54:28.039Z,32.77
2018-06-05T02:56:57.245Z,31.87
2018-06-05T02:59:26.574Z,34.97
2018-06-05T03:01:55.500Z,34.83
2018-06-05T03:04:24.321Z,32.00
2018-06-05T03:06:53.472Z,32.83
2018-06-05T03:09:22.863Z,39.93
2018-06-05T03:11:52.736Z,35.37
2018-06-05T03:14:21.940Z,38.57
2018-06-05T03:16:51.143Z,39.97
2018-06-05T03:19:21.141Z,38.13
2018-06-05T03:21:50.423Z,44.63
2018-06-05T03:24:19.670Z,39.23
2018-06-05T03:26:48.925Z,41.63
2018-06-05T03:29:18.109Z,37.73
2018-06-05T03:31:47.362Z,45.23
2018-06-05T03:34:16.656Z,44.83
2018-06-05T03:36:45.889Z,48.43
2018-06-05T03:39:15.125Z,46.40
2018-06-05T03:41:44.648Z,53.93
2018-06-05T03:44:13.955Z,48.33
2018-06-05T03:46:43.204Z,48.87
2018-06-05T03:49:12.420Z,45.40
2018-06-05T03:51:41.840Z,47.70
2018-06-05T03:54:11.056Z,49.70
2018-06-05T03:56:40.301Z,55.10
2018-06-05T03:59:09.584Z,55.70
2018-06-05T04:01:38.477Z,58.97
2018-06-05T04:04:07.616Z,61.63
2018-06-05T04:06:36.903Z,62.10
2018-06-05T04:09:06.695Z,54.10
2018-06-05T04:11:36.036Z,57.87
2018-06-05T04:14:05.354Z,57.10
2018-06-05T04:16:34.594Z,54.10
2018-06-05T04:19:03.871Z,55.40
2018-06-05T04:21:33.159Z,51.20
2018-06-05T04:24:02.403Z,50.27
2018-06-05T04:26:31.342Z,44.57
2018-06-05T04:29:00.416Z,52.60
2018-06-05T04:31:29.832Z,48.80
2018-06-05T04:33:59.077Z,49.47
2018-06-05T04:36:28.365Z,48.30
2018-06-05T04:38:57.600Z,47.50
2018-06-05T04:41:26.832Z,48.43
2018-06-05T04:43:56.274Z,42.07
2018-06-05T04:46:25.573Z,47.17
2018-06-05T04:48:54.813Z,54.13
2018-06-05T04:51:24.074Z,48.37
2018-06-05T04:53:53.314Z,55.07
2018-06-05T04:56:22.525Z,49.70
2018-06-05T04:58:51.772Z,48.63
2018-06-05T05:01:21.012Z,45.97
2018-06-05T05:03:50.224Z,51.90
2018-06-05T05:06:19.486Z,50.97
2018-06-05T05:08:48.732Z,47.17
2018-06-05T05:11:17.772Z,51.77
2018-06-05T05:13:46.723Z,51.40
2018-06-05T05:16:15.838Z,47.00
2018-06-05T05:18:45.229Z,51.77
2018-06-05T05:21:14.497Z,50.13
2018-06-05T05:23:43.917Z,45.77
2018-06-05T05:26:13.155Z,45.97
2018-06-05T05:28:43.388Z,50.00
2018-06-05T05:31:12.655Z,47.30
2018-06-05T05:33:42.970Z,50.30
2018-06-05T05:36:12.276Z,47.20
2018-06-05T05:38:41.503Z,47.53
2018-06-05T05:41:10.768Z,47.30
2018-06-05T05:43:40.136Z,49.53
2018-06-05T05:46:09.499Z,41.57
2018-06-05T05:48:39.523Z,45.27
2018-06-05T05:51:13.206Z,47.53
2018-06-05T05:53:42.569Z,42.73
2018-06-05T05:56:11.788Z,50.67
2018-06-05T05:58:41.184Z,49.40
2018-06-05T06:01:10.594Z,54.90
2018-06-05T06:03:39.896Z,50.30
2018-06-05T06:06:09.145Z,47.47
2018-06-05T06:08:38.408Z,52.73
2018-06-05T06:11:07.673Z,53.40
2018-06-05T06:13:37.515Z,55.43
2018-06-05T06:16:06.774Z,49.60
2018-06-05T06:18:36.012Z,58.43
2018-06-05T06:21:05.590Z,54.17
2018-06-05T06:23:34.871Z,48.33
2018-06-05T06:26:04.530Z,56.03
2018-06-05T06:28:33.768Z,58.20
2018-06-05T06:31:03.963Z,61.77
2018-06-05T06:33:33.165Z,54.43
2018-06-05T06:36:02.385Z,55.47
2018-06-05T06:38:31.654Z,61.43
2018-06-05T06:41:00.868Z,56.30
2018-06-05T06:43:30.389Z,55.53
2018-06-05T06:45:59.596Z,53.63
2018-06-05T06:48:29.105Z,50.30
2018-06-05T06:50:58.360Z,51.23
2018-06-05T06:53:27.761Z,58.97
2018-06-05T06:55:57.020Z,58.40
2018-06-05T06:58:25.968Z,52.13
2018-06-05T07:00:55.068Z,53.83
2018-06-05T07:03:24.399Z,58.43
2018-06-05T07:05:54.412Z,54.93
2018-06-05T07:08:23.640Z,50.80
2018-06-05T07:10:52.945Z,51.57
2018-06-05T07:13:22.178Z,49.17
2018-06-05T07:17:17.225Z,45.80
2018-06-05T07:19:46.500Z,54.10
2018-06-05T07:22:15.978Z,48.63
2018-06-05T07:24:45.204Z,41.93
2018-06-05T07:27:14.137Z,52.53
2018-06-05T07:29:43.280Z,54.53
2018-06-05T07:32:12.496Z,51.70
2018-06-05T07:34:41.696Z,46.97
2018-06-05T07:37:11.524Z,54.80
2018-06-05T07:39:40.739Z,52.60
2018-06-05T07:42:09.965Z,49.93
2018-06-05T07:44:39.295Z,47.87
2018-06-05T07:47:08.525Z,53.53
2018-06-05T07:49:37.773Z,49.73
2018-06-05T07:52:06.971Z,56.50
2018-06-05T07:54:36.239Z,69.10
2018-06-05T07:57:05.499Z,52.73
2018-06-05T07:59:34.800Z,50.63
2018-06-05T08:02:04.026Z,47.47
2018-06-05T08:04:33.220Z,54.67
2018-06-05T08:07:02.478Z,53.23
2018-06-05T08:09:32.979Z,51.53
2018-06-05T08:12:02.747Z,50.63
2018-06-05T08:14:33.291Z,55.50
2018-06-05T08:17:02.688Z,55.27
2018-06-05T08:19:32.473Z,58.33
2018-06-05T08:22:02.091Z,49.20
2018-06-05T08:24:31.570Z,56.57
2018-06-05T08:27:02.160Z,53.30
2018-06-05T08:29:31.712Z,56.83
2018-06-05T08:32:02.173Z,62.77
2018-06-05T08:34:31.670Z,64.53
2018-06-05T08:37:01.868Z,56.47
2018-06-05T08:39:31.243Z,56.97
2018-06-05T08:42:00.460Z,70.03
2018-06-05T08:44:29.726Z,67.23
2018-06-05T08:46:58.928Z,63.80
2018-06-05T08:49:28.275Z,59.63
2018-06-05T08:51:57.583Z,70.17
2018-06-05T08:54:26.960Z,72.30
2018-06-05T08:56:56.222Z,67.93
2018-06-05T08:59:25.492Z,68.93
2018-06-05T09:01:54.760Z,68.97
2018-06-05T09:04:24.067Z,58.73
2018-06-05T09:06:53.400Z,70.90
2018-06-05T09:09:22.635Z,66.73
2018-06-05T09:11:51.913Z,58.83
2018-06-05T09:14:21.595Z,69.97
2018-06-05T09:16:50.924Z,70.77
2018-06-05T09:19:20.264Z,68.00
2018-06-05T09:21:49.552Z,72.80
2018-06-05T09:24:18.868Z,71.23
2018-06-05T09:26:47.830Z,83.83
2018-06-05T09:29:16.918Z,73.37
2018-06-05T09:31:46.205Z,71.07
2018-06-05T09:34:15.427Z,69.93
2018-06-05T09:36:44.687Z,67.10
2018-06-05T09:39:14.016Z,63.47
2018-06-05T09:41:43.294Z,76.10
2018-06-05T09:44:12.655Z,70.67
2018-06-05T09:46:41.924Z,72.37
2018-06-05T09:49:11.145Z,68.03
2018-06-05T09:51:40.399Z,67.60
2018-06-05T09:54:09.612Z,67.63
2018-06-05T09:56:38.936Z,74.13
2018-06-05T09:59:08.285Z,70.53
2018-06-05T10:01:37.674Z,66.80
2018-06-05T10:04:07.038Z,59.20
2018-06-05T10:06:36.327Z,58.17
2018-06-05T10:09:06.979Z,55.37
2018-06-05T10:11:36.275Z,57.30
2018-06-05T10:14:05.639Z,54.10
2018-06-05T10:16:35.058Z,55.40
2018-06-05T10:19:04.382Z,60.47
2018-06-05T10:21:33.702Z,55.17
2018-06-05T10:24:03.680Z,49.83
2018-06-05T10:26:32.999Z,55.33
2018-06-05T10:29:02.483Z,58.93
2018-06-05T10:31:31.739Z,55.40
2018-06-05T10:34:00.968Z,54.37
2018-06-05T10:36:30.272Z,58.70
2018-06-05T10:38:59.696Z,63.23
2018-06-05T10:41:28.972Z,52.73
2018-06-05T10:43:58.273Z,52.00
2018-06-05T10:46:27.883Z,56.00
2018-06-05T10:48:57.245Z,49.43
2018-06-05T10:51:26.520Z,55.43
2018-06-05T10:53:55.838Z,51.80
2018-06-05T10:56:25.094Z,58.47
2018-06-05T10:58:54.311Z,50.27
2018-06-05T11:01:23.671Z,62.83
2018-06-05T11:03:52.911Z,50.40
2018-06-05T11:06:22.325Z,54.23
2018-06-05T11:08:51.707Z,47.13
2018-06-05T11:11:20.712Z,52.73
2018-06-05T11:13:49.897Z,51.73
2018-06-05T11:16:19.145Z,51.87
2018-06-05T11:18:48.468Z,48.30
2018-06-05T11:21:17.752Z,44.97
2018-06-05T11:23:47.130Z,48.17
2018-06-05T11:26:16.520Z,44.93
2018-06-05T11:28:45.761Z,48.40
2018-06-05T11:31:15.484Z,51.77
2018-06-05T11:33:44.717Z,52.43
2018-06-05T11:36:14.572Z,53.90
2018-06-05T11:38:44.307Z,64.77
2018-06-05T11:41:15.135Z,49.20
2018-06-05T11:43:45.467Z,52.17
2018-06-05T11:46:15.265Z,52.13
2018-06-05T11:48:46.160Z,59.40
2018-06-05T11:51:15.577Z,48.77
2018-06-05T11:53:44.885Z,56.40
2018-06-05T11:56:13.801Z,68.50
2018-06-05T11:58:42.959Z,53.73
2018-06-05T12:01:12.371Z,51.10
2018-06-05T12:03:41.619Z,47.23
2018-06-05T12:06:10.900Z,51.83
2018-06-05T12:08:41.226Z,53.40
2018-06-05T12:11:10.565Z,51.87
2018-06-05T12:13:39.833Z,54.63
2018-06-05T12:16:09.122Z,59.37
2018-06-05T12:18:38.457Z,55.90
2018-06-05T12:21:11.861Z,52.13
2018-06-05T12:23:41.191Z,54.60
2018-06-05T12:26:10.489Z,54.40
2018-06-05T12:28:40.265Z,54.00
2018-06-05T12:31:09.576Z,50.07
2018-06-05T12:33:40.153Z,55.20
2018-06-05T12:36:09.707Z,45.73
2018-06-05T12:38:39.191Z,44.40
2018-06-05T12:41:08.749Z,47.73
2018-06-05T12:43:38.862Z,51.33
2018-06-05T12:46:08.326Z,51.37
2018-06-05T12:48:37.604Z,46.93
2018-06-05T12:51:06.901Z,56.70
2018-06-05T12:53:37.603Z,63.53
2018-06-05T12:56:06.962Z,53.20
2018-06-05T12:58:37.249Z,51.00
2018-06-05T13:01:07.942Z,50.67
2018-06-05T13:03:37.540Z,52.90
2018-06-05T13:06:06.994Z,55.63
2018-06-05T13:08:36.307Z,49.30
2018-06-05T13:11:05.647Z,45.67
2018-06-05T13:13:34.986Z,50.10
2018-06-05T13:16:04.343Z,55.10
2018-06-05T13:18:33.622Z,44.00
2018-06-05T13:21:02.939Z,44.33
2018-06-05T13:23:32.288Z,40.07
2018-06-05T13:26:01.673Z,47.87
2018-06-05T13:28:31.059Z,36.13
2018-06-05T13:31:00.472Z,36.07
2018-06-05T13:33:29.746Z,37.20
2018-06-05T13:35:59.017Z,36.00
2018-06-05T13:38:28.091Z,37.20
2018-06-05T13:40:58.020Z,33.10
2018-06-05T13:43:27.212Z,40.20
2018-06-05T13:45:56.459Z,32.30
2018-06-05T13:48:25.809Z,33.70
2018-06-05T13:50:55.195Z,33.47
2018-06-05T13:53:24.548Z,36.03
2018-06-05T13:55:54.503Z,39.30
2018-06-05T13:58:24.007Z,38.80
2018-06-05T14:00:53.491Z,36.77
2018-06-05T14:03:22.691Z,37.93
2018-06-05T14:05:52.014Z,34.90
2018-06-05T14:08:21.308Z,33.57
2018-06-05T14:54:33.831Z,48.03
2018-06-05T14:57:03.040Z,49.90
2018-06-05T14:59:31.964Z,46.80
2018-06-05T15:02:00.796Z,49.70
2018-06-05T15:04:29.920Z,49.67
2018-06-05T15:06:58.887Z,51.87
2018-06-05T15:09:28.197Z,52.13
2018-06-05T15:11:58.437Z,51.10
2018-06-05T15:14:27.751Z,50.30
2018-06-05T15:16:57.160Z,48.80
2018-06-05T15:19:26.544Z,46.63
2018-06-05T15:21:55.853Z,47.17
2018-06-05T15:24:26.160Z,40.43
2018-06-05T15:26:55.431Z,42.80
2018-06-05T15:29:24.805Z,45.53
2018-06-05T15:31:54.274Z,46.70
2018-06-05T15:34:23.528Z,44.37
2018-06-05T15:36:52.911Z,41.50
2018-06-05T15:39:22.221Z,39.17
2018-06-05T15:41:51.517Z,39.07
2018-06-05T15:44:20.780Z,38.30
2018-06-05T15:46:50.195Z,38.63
2018-06-05T15:49:19.437Z,37.63
2018-06-05T15:51:48.692Z,37.23
2018-06-05T15:54:18.058Z,35.93
2018-06-05T15:56:48.065Z,40.50
2018-06-05T15:59:17.183Z,37.90
2018-06-05T16:01:46.419Z,34.30
2018-06-05T16:04:15.836Z,35.57
2018-06-05T16:06:45.129Z,34.57
2018-06-05T16:09:14.504Z,33.70
2018-06-05T16:11:43.470Z,35.37
2018-06-05T16:14:12.636Z,34.17
2018-06-05T16:16:42.413Z,34.20
2018-06-05T16:19:11.654Z,34.63
2018-06-05T16:21:40.888Z,37.73
2018-06-05T16:24:10.221Z,34.97
2018-06-05T16:26:39.576Z,36.10
2018-06-05T16:29:08.794Z,35.50
2018-06-05T16:31:38.596Z,35.10
2018-06-05T16:34:07.958Z,37.10
2018-06-05T16:36:37.200Z,34.53
2018-06-05T16:39:08.300Z,35.27
2018-06-05T16:41:37.586Z,34.33
2018-06-05T16:44:07.023Z,39.70
2018-06-05T16:46:36.804Z,37.93
2018-06-05T16:49:06.170Z,34.80
2018-06-05T16:51:35.418Z,36.90
2018-06-05T16:54:04.839Z,37.53
2018-06-05T16:56:34.161Z,32.47
2018-06-05T16:59:03.590Z,33.70
2018-06-05T17:01:32.869Z,34.73
2018-06-05T17:04:02.200Z,33.77
2018-06-05T17:06:31.530Z,32.97
2018-06-05T17:09:00.875Z,32.67
2018-06-05T17:11:30.184Z,37.50
2018-06-05T17:13:59.179Z,35.40
2018-06-05T17:16:28.477Z,38.20
2018-06-05T17:18:58.852Z,32.50
2018-06-05T17:21:28.756Z,33.57
2018-06-05T17:23:58.307Z,31.83
2018-06-05T17:26:27.588Z,31.23
2018-06-05T17:28:57.573Z,34.20
2018-06-05T17:31:26.547Z,33.50
2018-06-05T17:33:55.735Z,35.83
2018-06-05T17:36:25.106Z,31.67
2018-06-05T17:38:54.361Z,33.97
2018-06-05T17:42:27.144Z,35.10
2018-06-05T17:44:56.382Z,32.17
2018-06-05T17:47:25.661Z,33.63
2018-06-05T17:49:54.928Z,31.93
2018-06-05T17:52:23.876Z,39.53
2018-06-05T17:54:52.971Z,31.37
2018-06-05T17:57:22.406Z,33.13
2018-06-05T17:59:51.689Z,34.60
2018-06-05T18:02:21.045Z,35.63
2018-06-05T18:04:50.452Z,33.03
2018-06-05T18:07:19.918Z,33.83
2018-06-05T18:09:49.255Z,30.93
2018-06-05T18:12:18.224Z,31.80
2018-06-05T18:14:47.398Z,34.37
2018-06-05T18:17:16.663Z,37.67
2018-06-05T18:19:46.014Z,35.00
2018-06-05T18:22:15.247Z,35.77
2018-06-05T18:24:44.564Z,34.47
2018-06-05T18:27:13.859Z,35.13
2018-06-05T18:29:43.228Z,35.47
2018-06-05T18:32:12.522Z,35.13
2018-06-05T18:34:42.461Z,38.10
2018-06-05T18:37:11.914Z,35.33
2018-06-05T18:39:41.669Z,38.93
2018-06-05T18:42:11.776Z,35.73
2018-06-05T18:44:42.375Z,37.00
2018-06-05T18:47:12.497Z,35.20
2018-06-05T18:49:41.626Z,35.80
2018-06-05T18:52:10.780Z,36.77
2018-06-05T18:54:40.059Z,40.00
2018-06-05T18:57:09.273Z,43.43
2018-06-05T18:59:38.644Z,34.27
2018-06-05T19:02:07.968Z,34.27
2018-06-05T19:04:37.320Z,34.77
2018-06-05T19:07:06.653Z,35.30
2018-06-05T19:09:36.029Z,35.60
2018-06-05T19:12:05.010Z,35.03
2018-06-05T19:14:34.343Z,37.60
2018-06-05T19:17:04.680Z,34.60
2018-06-05T19:19:34.006Z,41.77
2018-06-05T19:22:03.280Z,35.27
2018-06-05T19:24:32.709Z,35.17
2018-06-05T19:27:01.994Z,40.63
2018-06-05T19:29:31.253Z,34.77
2018-06-05T19:32:00.467Z,34.00
2018-06-05T19:34:29.732Z,38.47
2018-06-05T19:36:59.005Z,33.10
2018-06-05T19:39:28.350Z,33.97
2018-06-05T19:41:57.592Z,38.93
2018-06-05T19:44:26.834Z,34.43
2018-06-05T19:46:56.624Z,33.90
2018-06-05T19:49:25.943Z,36.37
2018-06-05T19:51:55.228Z,33.40
2018-06-05T19:54:24.360Z,35.20
2018-06-05T19:56:53.541Z,36.80
2018-06-05T19:59:22.830Z,35.03
2018-06-05T20:01:52.660Z,39.20
2018-06-05T20:04:22.529Z,32.67
2018-06-05T20:06:52.736Z,32.20
2018-06-05T20:09:22.076Z,42.33
2018-06-05T20:11:51.357Z,34.33
2018-06-05T20:14:20.651Z,37.60
2018-06-05T20:16:50.041Z,38.83
2018-06-05T20:19:19.315Z,34.07
2018-06-05T20:21:49.288Z,34.53
2018-06-05T20:24:18.589Z,35.07
2018-06-05T20:26:48.489Z,33.63
2018-06-05T20:29:17.986Z,38.63
2018-06-05T20:31:47.257Z,35.80
2018-06-05T20:34:16.518Z,34.27
2018-06-05T20:36:45.885Z,36.70
2018-06-05T20:39:15.156Z,32.83
2018-06-05T20:41:44.509Z,32.40
2018-06-05T20:44:13.926Z,32.70
2018-06-05T20:46:43.207Z,36.90
2018-06-05T20:49:13.017Z,34.60
2018-06-05T20:51:42.313Z,32.20
2018-06-05T20:54:17.195Z,34.43
2018-06-05T20:56:46.913Z,30.53
2018-06-05T20:59:16.251Z,38.77
2018-06-05T21:01:45.626Z,30.13
2018-06-05T21:04:15.009Z,32.53
2018-06-05T21:06:44.339Z,31.23
2018-06-05T21:09:13.738Z,29.83
2018-06-05T21:11:43.135Z,29.97
2018-06-05T21:14:12.605Z,31.30
2018-06-05T21:16:41.636Z,29.40
2018-06-05T21:19:10.988Z,35.37
2018-06-05T21:21:40.295Z,32.60
2018-06-05T21:24:10.394Z,30.10
2018-06-05T21:26:39.848Z,30.63
2018-06-05T21:29:09.296Z,33.07
2018-06-05T21:31:38.631Z,28.90
2018-06-05T21:34:08.098Z,28.90
2018-06-05T21:36:37.342Z,36.00
2018-06-05T21:39:09.491Z,33.17
2018-06-05T21:41:38.849Z,32.83
2018-06-05T21:44:08.163Z,30.83
2018-06-05T21:46:37.468Z,33.53
2018-06-05T21:49:06.802Z,33.13
2018-06-05T21:51:36.773Z,32.37
2018-06-05T21:54:06.561Z,29.53
2018-06-05T21:56:35.838Z,32.13
2018-06-05T21:59:05.324Z,30.90
2018-06-05T22:01:34.529Z,31.47
2018-06-05T22:04:03.837Z,31.10
2018-06-05T22:06:33.101Z,30.87
2018-06-05T22:09:03.168Z,33.17
2018-06-05T22:11:32.391Z,33.43
2018-06-05T22:14:01.686Z,32.00
2018-06-05T22:16:30.972Z,31.43
2018-06-05T22:19:00.418Z,32.13
2018-06-05T22:21:29.664Z,34.70
2018-06-05T22:23:59.028Z,33.00
2018-06-05T22:26:28.317Z,33.00
2018-06-05T22:28:57.683Z,31.80
2018-06-05T22:31:27.043Z,35.13
2018-06-05T22:33:56.348Z,34.43
2018-06-05T22:36:25.669Z,32.57
2018-06-05T22:38:55.729Z,31.47
2018-06-05T22:41:24.992Z,30.10
2018-06-05T22:43:54.831Z,32.43
2018-06-05T22:46:24.083Z,31.23
2018-06-05T22:48:53.370Z,31.10
2018-06-05T22:51:22.766Z,30.00
2018-06-05T22:53:52.269Z,36.97
2018-06-05T22:56:21.532Z,33.60
2018-06-05T22:58:50.826Z,33.17
2018-06-05T23:01:20.333Z,33.40
2018-06-05T23:03:49.448Z,29.33
2018-06-05T23:06:18.717Z,30.23
2018-06-05T23:08:48.036Z,31.80
2018-06-05T23:11:17.371Z,33.60
2018-06-05T23:13:46.596Z,35.93
2018-06-05T23:16:15.881Z,33.63
2018-06-05T23:18:45.168Z,35.77
2018-06-05T23:21:14.406Z,36.57
2018-06-05T23:23:43.649Z,35.37
2018-06-05T23:26:12.891Z,29.60
2018-06-05T23:28:42.336Z,30.60
2018-06-05T23:31:11.570Z,34.87
2018-06-05T23:33:40.792Z,32.10
2018-06-05T23:36:10.069Z,30.23
2018-06-05T23:38:39.338Z,33.50
2018-06-05T23:41:08.699Z,32.97
2018-06-05T23:43:37.979Z,34.07
2018-06-05T23:46:07.230Z,32.80
2018-06-05T23:48:36.512Z,34.93
2018-06-05T23:51:05.836Z,36.33
2018-06-05T23:53:35.058Z,35.23
2018-06-05T23:56:04.305Z,30.70
2018-06-05T23:58:33.591Z,39.23
